sensor_id;sensor_type;location;lat;lon;timestamp;pressure;altitude;pressure_sealevel;temperature;humidity
21980;BME280;11154;48.558;9.234;2023-09-07T00:00:41;97844.28;;;19.28;100.00
21980;BME280;11154;48.558;9.234;2023-09-07T00:02:43;97848.22;;;19.26;100.00
21980;BME280;11154;48.558;9.234;2023-09-07T00:04:45;97846.56;;;19.25;100.00
21980;BME280;11154;48.558;9.234;2023-09-07T00:06:46;97840.94;;;19.26;100.00
21980;BME280;11154;48.558;9.234;2023-09-07T00:08:49;97840.72;;;19.28;100.00
21980;BME280;11154;48.558;9.234;2023-09-07T00:10:51;97845.09;;;19.29;100.00
21980;BME280;11154;48.558;9.234;2023-09-07T00:12:53;97838.03;;;19.28;100.00
21980;BME280;11154;48.558;9.234;2023-09-07T00:14:56;97838.84;;;19.22;100.00
21980;BME280;11154;48.558;9.234;2023-09-07T00:16:58;97843.03;;;19.18;100.00
21980;BME280;11154;48.558;9.234;2023-09-07T00:19:00;97844.69;;;19.19;100.00
21980;BME280;11154;48.558;9.234;2023-09-07T00:21:02;97834.31;;;19.16;100.00
21980;BME280;11154;48.558;9.234;2023-09-07T00:23:04;97839.69;;;19.16;100.00
21980;BME280;11154;48.558;9.234;2023-09-07T00:25:07;97839.69;;;19.16;100.00
21980;BME280;11154;48.558;9.234;2023-09-07T00:27:08;97837.38;;;19.06;100.00
21980;BME280;11154;48.558;9.234;2023-09-07T00:29:11;97842.56;;;19.01;100.00
21980;BME280;11154;48.558;9.234;2023-09-07T00:31:14;97837.16;;;18.95;100.00
21980;BME280;11154;48.558;9.234;2023-09-07T00:33:16;97834.88;;;18.92;100.00
21980;BME280;11154;48.558;9.234;2023-09-07T00:35:18;97831.34;;;18.91;100.00
21980;BME280;11154;48.558;9.234;2023-09-07T00:37:19;97839.63;;;18.90;100.00
21980;BME280;11154;48.558;9.234;2023-09-07T00:39:21;97837.97;;;18.89;100.00
21980;BME280;11154;48.558;9.234;2023-09-07T00:41:23;97841.69;;;18.88;100.00
21980;BME280;11154;48.558;9.234;2023-09-07T00:43:23;97844.38;;;18.88;100.00
21980;BME280;11154;48.558;9.234;2023-09-07T00:45:25;97846.06;;;18.89;100.00
21980;BME280;11154;48.558;9.234;2023-09-07T00:47:28;97841.69;;;18.88;100.00
21980;BME280;11154;48.558;9.234;2023-09-07T00:49:30;97844.59;;;18.86;100.00
21980;BME280;11154;48.558;9.234;2023-09-07T00:51:32;97848.75;;;18.89;100.00
21980;BME280;11154;48.558;9.234;2023-09-07T00:53:33;97844.22;;;18.89;100.00
21980;BME280;11154;48.558;9.234;2023-09-07T00:55:35;97843.34;;;18.89;100.00
21980;BME280;11154;48.558;9.234;2023-09-07T00:57:37;97840.66;;;18.89;100.00
21980;BME280;11154;48.558;9.234;2023-09-07T00:59:42;97844.38;;;18.88;100.00
21980;BME280;11154;48.558;9.234;2023-09-07T01:01:44;97842.13;;;18.85;100.00
21980;BME280;11154;48.558;9.234;2023-09-07T01:03:47;97839.63;;;18.83;100.00
21980;BME280;11154;48.558;9.234;2023-09-07T01:05:52;97837.13;;;18.82;100.00
21980;BME280;11154;48.558;9.234;2023-09-07T01:08:00;97847.31;;;18.80;100.00
21980;BME280;11154;48.558;9.234;2023-09-07T01:10:04;97844.59;;;18.80;100.00
21980;BME280;11154;48.558;9.234;2023-09-07T01:12:06;97837.56;;;18.79;100.00
21980;BME280;11154;48.558;9.234;2023-09-07T01:14:10;97838.78;;;18.77;100.00
21980;BME280;11154;48.558;9.234;2023-09-07T01:16:12;97841.28;;;18.72;100.00
21980;BME280;11154;48.558;9.234;2023-09-07T01:18:15;97840.22;;;18.73;100.00
21980;BME280;11154;48.558;9.234;2023-09-07T01:20:19;97833.38;;;18.70;100.00
21980;BME280;11154;48.558;9.234;2023-09-07T01:22:22;97838.34;;;18.67;100.00
21980;BME280;11154;48.558;9.234;2023-09-07T01:24:24;97835.44;;;18.62;100.00
21980;BME280;11154;48.558;9.234;2023-09-07T01:26:26;97836.47;;;18.61;100.00
21980;BME280;11154;48.558;9.234;2023-09-07T01:28:28;97837.06;;;18.56;100.00
21980;BME280;11154;48.558;9.234;2023-09-07T01:30:30;97832.91;;;18.54;100.00
21980;BME280;11154;48.558;9.234;2023-09-07T01:32:32;97836.47;;;18.54;100.00
21980;BME280;11154;48.558;9.234;2023-09-07T01:34:33;97833.34;;;18.51;100.00
21980;BME280;11154;48.558;9.234;2023-09-07T01:36:34;97836.63;;;18.46;100.00
21980;BME280;11154;48.558;9.234;2023-09-07T01:38:37;97831.25;;;18.46;100.00
21980;BME280;11154;48.558;9.234;2023-09-07T01:40:39;97833.94;;;18.46;100.00
21980;BME280;11154;48.558;9.234;2023-09-07T01:42:41;97831.25;;;18.46;100.00
21980;BME280;11154;48.558;9.234;2023-09-07T01:44:42;97834.53;;;18.42;100.00
21980;BME280;11154;48.558;9.234;2023-09-07T01:46:44;97841.81;;;18.41;100.00
21980;BME280;11154;48.558;9.234;2023-09-07T01:48:46;97833.31;;;18.38;100.00
21980;BME280;11154;48.558;9.234;2023-09-07T01:50:52;97838.47;;;18.39;100.00
21980;BME280;11154;48.558;9.234;2023-09-07T01:52:52;97838.47;;;18.39;100.00
21980;BME280;11154;48.558;9.234;2023-09-07T01:54:56;97849.47;;;18.38;100.00
21980;BME280;11154;48.558;9.234;2023-09-07T01:56:58;97843.66;;;18.34;100.00
21980;BME280;11154;48.558;9.234;2023-09-07T01:58:59;97843.84;;;18.33;100.00
21980;BME280;11154;48.558;9.234;2023-09-07T02:01:01;97849.84;;;18.28;100.00
21980;BME280;11154;48.558;9.234;2023-09-07T02:03:03;97847.34;;;18.27;100.00
21980;BME280;11154;48.558;9.234;2023-09-07T02:05:05;97848.16;;;18.27;100.00
21980;BME280;11154;48.558;9.234;2023-09-07T02:07:07;97849.84;;;18.28;100.00
21980;BME280;11154;48.558;9.234;2023-09-07T02:09:08;97847.78;;;18.30;100.00
21980;BME280;11154;48.558;9.234;2023-09-07T02:11:11;97839.72;;;18.30;100.00
21980;BME280;11154;48.558;9.234;2023-09-07T02:13:13;97837.84;;;18.31;100.00
21980;BME280;11154;48.558;9.234;2023-09-07T02:15:15;97840.31;;;18.32;100.00
21980;BME280;11154;48.558;9.234;2023-09-07T02:17:16;97839.88;;;18.29;100.00
21980;BME280;11154;48.558;9.234;2023-09-07T02:19:19;97846.50;;;18.26;100.00
21980;BME280;11154;48.558;9.234;2023-09-07T02:21:22;97840.31;;;18.26;100.00
21980;BME280;11154;48.558;9.234;2023-09-07T02:23:24;97845.88;;;18.24;100.00
21980;BME280;11154;48.558;9.234;2023-09-07T02:25:26;97842.56;;;18.22;100.00
21980;BME280;11154;48.558;9.234;2023-09-07T02:27:29;97841.13;;;18.20;100.00
21980;BME280;11154;48.558;9.234;2023-09-07T02:29:30;97834.06;;;18.25;100.00
21980;BME280;11154;48.558;9.234;2023-09-07T02:31:32;97843.59;;;18.21;100.00
21980;BME280;11154;48.558;9.234;2023-09-07T02:33:34;97838.56;;;18.18;100.00
21980;BME280;11154;48.558;9.234;2023-09-07T02:35:36;97839.41;;;18.19;100.00
21980;BME280;11154;48.558;9.234;2023-09-07T02:37:38;97840.66;;;18.16;100.00
21980;BME280;11154;48.558;9.234;2023-09-07T02:39:39;97845.00;;;18.17;100.00
21980;BME280;11154;48.558;9.234;2023-09-07T02:41:41;97843.94;;;18.18;100.00
21980;BME280;11154;48.558;9.234;2023-09-07T02:43:44;97842.31;;;18.17;100.00
21980;BME280;11154;48.558;9.234;2023-09-07T02:45:46;97838.97;;;18.15;100.00
21980;BME280;11154;48.558;9.234;2023-09-07T02:47:48;97841.03;;;18.13;100.00
21980;BME280;11154;48.558;9.234;2023-09-07T02:49:51;97838.34;;;18.13;100.00
21980;BME280;11154;48.558;9.234;2023-09-07T02:51:52;97835.66;;;18.13;100.00
21980;BME280;11154;48.558;9.234;2023-09-07T02:53:56;97826.13;;;18.11;100.00
21980;BME280;11154;48.558;9.234;2023-09-07T02:55:57;97824.44;;;18.10;100.00
21980;BME280;11154;48.558;9.234;2023-09-07T02:58:03;97823.63;;;18.09;100.00
21980;BME280;11154;48.558;9.234;2023-09-07T03:00:06;97820.50;;;18.06;100.00
21980;BME280;11154;48.558;9.234;2023-09-07T03:02:10;97824.63;;;18.02;100.00
21980;BME280;11154;48.558;9.234;2023-09-07T03:04:12;97821.53;;;17.99;100.00
21980;BME280;11154;48.558;9.234;2023-09-07T03:06:14;97818.56;;;17.94;100.00
21980;BME280;11154;48.558;9.234;2023-09-07T03:08:16;97814.63;;;17.90;100.00
21980;BME280;11154;48.558;9.234;2023-09-07T03:10:18;97817.91;;;17.85;100.00
21980;BME280;11154;48.558;9.234;2023-09-07T03:12:19;97815.44;;;17.84;100.00
21980;BME280;11154;48.558;9.234;2023-09-07T03:14:20;97809.41;;;17.82;100.00
21980;BME280;11154;48.558;9.234;2023-09-07T03:16:23;97813.13;;;17.81;100.00
21980;BME280;11154;48.558;9.234;2023-09-07T03:18:25;97809.41;;;17.75;100.00
21980;BME280;11154;48.558;9.234;2023-09-07T03:20:27;97810.66;;;17.79;100.00
21980;BME280;11154;48.558;9.234;2023-09-07T03:22:28;97806.50;;;17.83;100.00
21980;BME280;11154;48.558;9.234;2023-09-07T03:24:30;97812.09;;;17.82;100.00
21980;BME280;11154;48.558;9.234;2023-09-07T03:26:31;97814.34;;;17.78;100.00
21980;BME280;11154;48.558;9.234;2023-09-07T03:28:32;97812.91;;;17.76;100.00
21980;BME280;11154;48.558;9.234;2023-09-07T03:30:33;97811.06;;;17.76;100.00
21980;BME280;11154;48.558;9.234;2023-09-07T03:32:36;97812.47;;;17.72;100.00
21980;BME280;11154;48.558;9.234;2023-09-07T03:34:37;97823.44;;;17.71;100.00
21980;BME280;11154;48.558;9.234;2023-09-07T03:36:39;97817.84;;;17.72;100.00
21980;BME280;11154;48.558;9.234;2023-09-07T03:38:40;97820.75;;;17.71;100.00
21980;BME280;11154;48.558;9.234;2023-09-07T03:40:41;97818.06;;;17.71;100.00
21980;BME280;11154;48.558;9.234;2023-09-07T03:42:43;97825.91;;;17.66;100.00
21980;BME280;11154;48.558;9.234;2023-09-07T03:44:46;97821.91;;;17.62;100.00
21980;BME280;11154;48.558;9.234;2023-09-07T03:46:48;97824.22;;;17.65;100.00
21980;BME280;11154;48.558;9.234;2023-09-07T03:48:51;97824.22;;;17.65;100.00
21980;BME280;11154;48.558;9.234;2023-09-07T03:50:51;97820.69;;;17.64;100.00
21980;BME280;11154;48.558;9.234;2023-09-07T03:52:53;97821.53;;;17.65;100.00
21980;BME280;11154;48.558;9.234;2023-09-07T03:54:55;97825.91;;;17.66;100.00
21980;BME280;11154;48.558;9.234;2023-09-07T03:56:56;97818.84;;;17.65;100.00
21980;BME280;11154;48.558;9.234;2023-09-07T03:58:57;97823.38;;;17.64;100.00
21980;BME280;11154;48.558;9.234;2023-09-07T04:00:59;97822.94;;;17.61;100.00
21980;BME280;11154;48.558;9.234;2023-09-07T04:03:01;97821.09;;;17.61;100.00
21980;BME280;11154;48.558;9.234;2023-09-07T04:05:03;97828.31;;;17.61;100.00
21980;BME280;11154;48.558;9.234;2023-09-07T04:07:05;97824.16;;;17.58;100.00
21980;BME280;11154;48.558;9.234;2023-09-07T04:09:07;97821.69;;;17.57;100.00
21980;BME280;11154;48.558;9.234;2023-09-07T04:11:07;97824.16;;;17.58;100.00
21980;BME280;11154;48.558;9.234;2023-09-07T04:13:09;97821.47;;;17.58;100.00
21980;BME280;11154;48.558;9.234;2023-09-07T04:15:11;97827.28;;;17.55;100.00
21980;BME280;11154;48.558;9.234;2023-09-07T04:17:13;97818.75;;;17.52;100.00
21980;BME280;11154;48.558;9.234;2023-09-07T04:19:14;97820.00;;;17.49;100.00
21980;BME280;11154;48.558;9.234;2023-09-07T04:21:17;97816.47;;;17.49;100.00
21980;BME280;11154;48.558;9.234;2023-09-07T04:23:19;97824.94;;;17.46;100.00
21980;BME280;11154;48.558;9.234;2023-09-07T04:25:21;97817.25;;;17.43;100.00
21980;BME280;11154;48.558;9.234;2023-09-07T04:27:22;97824.50;;;17.42;100.00
21980;BME280;11154;48.558;9.234;2023-09-07T04:29:24;97822.00;;;17.41;100.00
21980;BME280;11154;48.558;9.234;2023-09-07T04:31:25;97819.13;;;17.42;100.00
21980;BME280;11154;48.558;9.234;2023-09-07T04:33:29;97817.00;;;17.38;100.00
21980;BME280;11154;48.558;9.234;2023-09-07T04:35:32;97818.69;;;17.39;100.00
21980;BME280;11154;48.558;9.234;2023-09-07T04:37:35;97822.97;;;17.34;100.00
21980;BME280;11154;48.558;9.234;2023-09-07T04:39:37;97825.03;;;17.32;100.00
21980;BME280;11154;48.558;9.234;2023-09-07T04:41:40;97825.97;;;17.24;100.00
21980;BME280;11154;48.558;9.234;2023-09-07T04:43:42;97824.06;;;17.18;100.00
21980;BME280;11154;48.558;9.234;2023-09-07T04:45:47;97823.84;;;17.20;100.00
21980;BME280;11154;48.558;9.234;2023-09-07T04:47:49;97827.84;;;17.24;100.00
21980;BME280;11154;48.558;9.234;2023-09-07T04:49:51;97827.63;;;17.25;100.00
21980;BME280;11154;48.558;9.234;2023-09-07T04:51:53;97826.38;;;17.21;98.93
21980;BME280;11154;48.558;9.234;2023-09-07T04:53:56;97819.22;;;17.28;100.00
21980;BME280;11154;48.558;9.234;2023-09-07T04:55:57;97823.81;;;17.34;100.00
21980;BME280;11154;48.558;9.234;2023-09-07T04:57:58;97820.94;;;17.36;100.00
21980;BME280;11154;48.558;9.234;2023-09-07T05:00:00;97824.44;;;17.36;100.00
21980;BME280;11154;48.558;9.234;2023-09-07T05:02:03;97834.75;;;17.33;100.00
21980;BME280;11154;48.558;9.234;2023-09-07T05:04:05;97827.75;;;17.38;100.00
21980;BME280;11154;48.558;9.234;2023-09-07T05:06:07;97821.56;;;17.38;100.00
21980;BME280;11154;48.558;9.234;2023-09-07T05:08:07;97819.69;;;17.38;100.00
21980;BME280;11154;48.558;9.234;2023-09-07T05:10:11;97819.06;;;17.36;100.00
21980;BME280;11154;48.558;9.234;2023-09-07T05:12:13;97828.19;;;17.35;100.00
21980;BME280;11154;48.558;9.234;2023-09-07T05:14:18;97828.19;;;17.35;100.00
21980;BME280;11154;48.558;9.234;2023-09-07T05:16:20;97832.50;;;17.36;100.00
21980;BME280;11154;48.558;9.234;2023-09-07T05:18:22;97827.13;;;17.36;100.00
21980;BME280;11154;48.558;9.234;2023-09-07T05:20:25;97840.38;;;17.38;100.00
21980;BME280;11154;48.558;9.234;2023-09-07T05:22:26;97832.50;;;17.36;100.00
21980;BME280;11154;48.558;9.234;2023-09-07T05:24:27;97833.78;;;17.40;100.00
21980;BME280;11154;48.558;9.234;2023-09-07T05:26:30;97834.16;;;17.37;100.00
21980;BME280;11154;48.558;9.234;2023-09-07T05:28:31;97835.19;;;17.36;100.00
21980;BME280;11154;48.558;9.234;2023-09-07T05:30:33;97845.78;;;17.38;100.00
21980;BME280;11154;48.558;9.234;2023-09-07T05:32:34;97844.31;;;17.35;100.00
21980;BME280;11154;48.558;9.234;2023-09-07T05:34:37;97846.78;;;17.37;100.00
21980;BME280;11154;48.558;9.234;2023-09-07T05:36:38;97851.31;;;17.36;100.00
21980;BME280;11154;48.558;9.234;2023-09-07T05:38:40;97849.28;;;17.38;100.00
21980;BME280;11154;48.558;9.234;2023-09-07T05:40:43;97857.97;;;17.40;100.00
21980;BME280;11154;48.558;9.234;2023-09-07T05:42:46;97854.28;;;17.41;100.00
21980;BME280;11154;48.558;9.234;2023-09-07T05:44:48;97857.56;;;17.43;100.00
21980;BME280;11154;48.558;9.234;2023-09-07T05:46:49;97861.28;;;17.42;100.00
21980;BME280;11154;48.558;9.234;2023-09-07T05:48:51;97865.66;;;17.43;100.00
21980;BME280;11154;48.558;9.234;2023-09-07T05:50:53;97861.72;;;17.45;100.00
21980;BME280;11154;48.558;9.234;2023-09-07T05:52:54;97857.84;;;17.48;100.00
21980;BME280;11154;48.558;9.234;2023-09-07T05:54:55;97854.75;;;17.51;100.00
21980;BME280;11154;48.558;9.234;2023-09-07T05:56:56;97856.41;;;17.52;100.00
21980;BME280;11154;48.558;9.234;2023-09-07T05:58:59;97857.22;;;17.52;100.00
21980;BME280;11154;48.558;9.234;2023-09-07T06:01:01;97865.94;;;17.54;100.00
21980;BME280;11154;48.558;9.234;2023-09-07T06:03:03;97868.00;;;17.52;100.00
21980;BME280;11154;48.558;9.234;2023-09-07T06:05:05;97864.91;;;17.55;100.00
21980;BME280;11154;48.558;9.234;2023-09-07T06:07:07;97862.69;;;17.59;100.00
21980;BME280;11154;48.558;9.234;2023-09-07T06:09:08;97863.50;;;17.59;100.00
21980;BME280;11154;48.558;9.234;2023-09-07T06:11:10;97858.97;;;17.60;100.00
21980;BME280;11154;48.558;9.234;2023-09-07T06:13:12;97863.28;;;17.61;100.00
21980;BME280;11154;48.558;9.234;2023-09-07T06:15:15;97858.13;;;17.59;100.00
21980;BME280;11154;48.558;9.234;2023-09-07T06:17:16;97861.25;;;17.63;100.00
21980;BME280;11154;48.558;9.234;2023-09-07T06:19:18;97853.59;;;17.66;100.00
21980;BME280;11154;48.558;9.234;2023-09-07T06:21:20;97860.88;;;17.66;100.00
21980;BME280;11154;48.558;9.234;2023-09-07T06:23:21;97845.97;;;17.70;100.00
21980;BME280;11154;48.558;9.234;2023-09-07T06:25:23;97847.22;;;17.74;100.00
21980;BME280;11154;48.558;9.234;2023-09-07T06:27:25;97854.03;;;17.70;100.00
21980;BME280;11154;48.558;9.234;2023-09-07T06:29:26;97842.47;;;17.69;100.00
21980;BME280;11154;48.558;9.234;2023-09-07T06:31:29;97843.94;;;17.72;100.00
21980;BME280;11154;48.558;9.234;2023-09-07T06:33:31;97842.91;;;17.73;100.00
21980;BME280;11154;48.558;9.234;2023-09-07T06:35:33;97854.28;;;17.75;100.00
21980;BME280;11154;48.558;9.234;2023-09-07T06:37:35;97852.03;;;17.78;100.00
21980;BME280;11154;48.558;9.234;2023-09-07T06:39:40;97857.84;;;17.82;100.00
21980;BME280;11154;48.558;9.234;2023-09-07T06:41:45;97858.72;;;17.89;100.00
21980;BME280;11154;48.558;9.234;2023-09-07T06:43:47;97853.34;;;17.89;100.00
21980;BME280;11154;48.558;9.234;2023-09-07T06:45:49;97861.25;;;17.97;100.00
21980;BME280;11154;48.558;9.234;2023-09-07T06:47:52;97861.03;;;17.98;100.00
21980;BME280;11154;48.558;9.234;2023-09-07T06:49:53;97861.47;;;18.02;100.00
21980;BME280;11154;48.558;9.234;2023-09-07T06:51:55;97859.44;;;18.04;100.00
21980;BME280;11154;48.558;9.234;2023-09-07T06:53:57;97850.56;;;18.09;100.00
21980;BME280;11154;48.558;9.234;2023-09-07T06:55:59;97860.50;;;18.15;100.00
21980;BME280;11154;48.558;9.234;2023-09-07T06:58:01;97860.78;;;18.20;100.00
21980;BME280;11154;48.558;9.234;2023-09-07T07:00:03;97862.44;;;18.21;100.00
21980;BME280;11154;48.558;9.234;2023-09-07T07:02:05;97861.63;;;18.21;100.00
21980;BME280;11154;48.558;9.234;2023-09-07T07:04:08;97859.75;;;18.28;100.00
21980;BME280;11154;48.558;9.234;2023-09-07T07:06:10;97862.72;;;18.33;100.00
21980;BME280;11154;48.558;9.234;2023-09-07T07:08:10;97869.13;;;18.38;100.00
21980;BME280;11154;48.558;9.234;2023-09-07T07:10:12;97862.75;;;18.52;100.00
21980;BME280;11154;48.558;9.234;2023-09-07T07:12:14;97863.19;;;18.56;100.00
21980;BME280;11154;48.558;9.234;2023-09-07T07:14:15;97860.31;;;18.70;100.00
21980;BME280;11154;48.558;9.234;2023-09-07T07:16:17;97870.88;;;18.65;100.00
21980;BME280;11154;48.558;9.234;2023-09-07T07:18:17;97866.97;;;18.74;100.00
21980;BME280;11154;48.558;9.234;2023-09-07T07:20:20;97868.88;;;18.80;100.00
21980;BME280;11154;48.558;9.234;2023-09-07T07:22:22;97865.34;;;18.86;100.00
21980;BME280;11154;48.558;9.234;2023-09-07T07:24:24;97866.59;;;18.90;100.00
21980;BME280;11154;48.558;9.234;2023-09-07T07:26:25;97872.19;;;18.95;100.00
21980;BME280;11154;48.558;9.234;2023-09-07T07:28:27;97862.47;;;19.00;100.00
21980;BME280;11154;48.558;9.234;2023-09-07T07:30:29;97862.09;;;19.10;100.00
21980;BME280;11154;48.558;9.234;2023-09-07T07:32:30;97870.81;;;19.25;100.00
21980;BME280;11154;48.558;9.234;2023-09-07T07:34:32;97862.50;;;19.26;100.00
21980;BME280;11154;48.558;9.234;2023-09-07T07:36:35;97859.59;;;19.28;100.00
21980;BME280;11154;48.558;9.234;2023-09-07T07:38:37;97865.84;;;19.28;100.00
21980;BME280;11154;48.558;9.234;2023-09-07T07:40:39;97862.50;;;19.33;100.00
21980;BME280;11154;48.558;9.234;2023-09-07T07:42:41;97873.72;;;19.49;100.00
21980;BME280;11154;48.558;9.234;2023-09-07T07:44:43;97868.31;;;19.56;100.00
21980;BME280;11154;48.558;9.234;2023-09-07T07:46:44;97868.13;;;19.63;100.00
21980;BME280;11154;48.558;9.234;2023-09-07T07:48:46;97864.34;;;19.64;100.00
21980;BME280;11154;48.558;9.234;2023-09-07T07:50:47;97855.84;;;19.67;100.00
21980;BME280;11154;48.558;9.234;2023-09-07T07:52:49;97869.13;;;19.69;100.00
21980;BME280;11154;48.558;9.234;2023-09-07T07:54:51;97864.13;;;19.72;100.00
21980;BME280;11154;48.558;9.234;2023-09-07T07:56:52;97861.63;;;19.77;100.00
21980;BME280;11154;48.558;9.234;2023-09-07T07:58:54;97864.97;;;19.79;100.00
21980;BME280;11154;48.558;9.234;2023-09-07T08:00:56;97865.16;;;19.84;100.00
21980;BME280;11154;48.558;9.234;2023-09-07T08:02:58;97866.00;;;19.98;100.00
21980;BME280;11154;48.558;9.234;2023-09-07T08:05:00;97860.75;;;20.09;100.00
21980;BME280;11154;48.558;9.234;2023-09-07T08:07:02;97869.50;;;20.11;100.00
21980;BME280;11154;48.558;9.234;2023-09-07T08:09:06;97868.84;;;20.16;100.00
21980;BME280;11154;48.558;9.234;2023-09-07T08:11:08;97860.72;;;20.22;100.00
21980;BME280;11154;48.558;9.234;2023-09-07T08:13:10;97852.38;;;20.36;100.00
21980;BME280;11154;48.558;9.234;2023-09-07T08:15:11;97865.22;;;20.41;100.00
21980;BME280;11154;48.558;9.234;2023-09-07T08:17:14;97854.81;;;20.44;100.00
21980;BME280;11154;48.558;9.234;2023-09-07T08:19:15;97859.56;;;20.49;100.00
21980;BME280;11154;48.558;9.234;2023-09-07T08:21:16;97853.13;;;20.50;100.00
21980;BME280;11154;48.558;9.234;2023-09-07T08:23:18;97848.06;;;20.60;100.00
21980;BME280;11154;48.558;9.234;2023-09-07T08:25:21;97847.84;;;20.68;100.00
21980;BME280;11154;48.558;9.234;2023-09-07T08:27:23;97849.50;;;20.69;100.00
21980;BME280;11154;48.558;9.234;2023-09-07T08:29:25;97851.38;;;20.75;100.00
21980;BME280;11154;48.558;9.234;2023-09-07T08:31:27;97849.84;;;20.85;100.00
21980;BME280;11154;48.558;9.234;2023-09-07T08:33:28;97850.25;;;20.89;100.00
21980;BME280;11154;48.558;9.234;2023-09-07T08:35:30;97844.75;;;21.02;100.00
21980;BME280;11154;48.558;9.234;2023-09-07T08:37:35;97841.59;;;21.04;99.99
21980;BME280;11154;48.558;9.234;2023-09-07T08:39:37;97845.09;;;21.11;99.26
21980;BME280;11154;48.558;9.234;2023-09-07T08:41:41;97849.63;;;21.17;99.45
21980;BME280;11154;48.558;9.234;2023-09-07T08:43:45;97848.97;;;21.22;99.53
21980;BME280;11154;48.558;9.234;2023-09-07T08:45:50;97853.50;;;21.28;99.37
21980;BME280;11154;48.558;9.234;2023-09-07T08:47:52;97848.81;;;21.41;100.00
21980;BME280;11154;48.558;9.234;2023-09-07T08:49:57;97853.16;;;21.42;99.61
21980;BME280;11154;48.558;9.234;2023-09-07T08:52:01;97852.50;;;21.47;99.42
21980;BME280;11154;48.558;9.234;2023-09-07T08:54:03;97852.88;;;21.50;98.98
21980;BME280;11154;48.558;9.234;2023-09-07T08:56:06;97857.91;;;21.53;98.58
21980;BME280;11154;48.558;9.234;2023-09-07T08:58:11;97844.53;;;21.58;98.62
21980;BME280;11154;48.558;9.234;2023-09-07T09:00:14;97843.63;;;21.64;97.58
21980;BME280;11154;48.558;9.234;2023-09-07T09:02:16;97843.09;;;21.80;97.41
21980;BME280;11154;48.558;9.234;2023-09-07T09:04:18;97843.91;;;21.80;97.86
21980;BME280;11154;48.558;9.234;2023-09-07T09:06:21;97841.56;;;21.84;97.35
21980;BME280;11154;48.558;9.234;2023-09-07T09:08:23;97838.88;;;22.02;100.00
21980;BME280;11154;48.558;9.234;2023-09-07T09:10:25;97851.06;;;22.11;98.77
21980;BME280;11154;48.558;9.234;2023-09-07T09:12:26;97850.03;;;22.12;96.65
21980;BME280;11154;48.558;9.234;2023-09-07T09:14:30;97845.56;;;22.17;96.04
21980;BME280;11154;48.558;9.234;2023-09-07T09:16:31;97848.50;;;22.16;95.50
21980;BME280;11154;48.558;9.234;2023-09-07T09:18:32;97846.31;;;22.24;95.78
21980;BME280;11154;48.558;9.234;2023-09-07T09:20:34;97841.44;;;22.33;98.78
21980;BME280;11154;48.558;9.234;2023-09-07T09:22:35;97844.53;;;22.36;97.13
21980;BME280;11154;48.558;9.234;2023-09-07T09:24:36;97839.97;;;22.37;97.17
21980;BME280;11154;48.558;9.234;2023-09-07T09:26:38;97836.91;;;22.45;96.31
21980;BME280;11154;48.558;9.234;2023-09-07T09:28:39;97842.34;;;22.45;96.11
21980;BME280;11154;48.558;9.234;2023-09-07T09:30:42;97833.78;;;22.48;96.54
21980;BME280;11154;48.558;9.234;2023-09-07T09:32:44;97834.75;;;22.53;97.48
21980;BME280;11154;48.558;9.234;2023-09-07T09:34:46;97837.34;;;22.59;97.58
21980;BME280;11154;48.558;9.234;2023-09-07T09:36:48;97821.03;;;22.66;97.45
21980;BME280;11154;48.558;9.234;2023-09-07T09:38:51;97826.19;;;22.67;96.03
21980;BME280;11154;48.558;9.234;2023-09-07T09:40:54;97821.03;;;22.66;94.94
21980;BME280;11154;48.558;9.234;2023-09-07T09:42:57;97814.88;;;22.70;95.48
21980;BME280;11154;48.558;9.234;2023-09-07T09:45:01;97827.31;;;22.78;96.44
21980;BME280;11154;48.558;9.234;2023-09-07T09:47:07;97816.84;;;22.81;96.32
21980;BME280;11154;48.558;9.234;2023-09-07T09:49:10;97815.31;;;22.85;95.80
21980;BME280;11154;48.558;9.234;2023-09-07T09:51:14;97823.94;;;22.94;97.01
21980;BME280;11154;48.558;9.234;2023-09-07T09:53:17;97828.66;;;22.98;95.63
21980;BME280;11154;48.558;9.234;2023-09-07T09:55:21;97830.47;;;23.04;95.32
21980;BME280;11154;48.558;9.234;2023-09-07T09:57:23;97824.00;;;23.05;94.79
21980;BME280;11154;48.558;9.234;2023-09-07T09:59:24;97827.09;;;23.09;93.84
21980;BME280;11154;48.558;9.234;2023-09-07T10:01:27;97824.50;;;23.14;94.24
21980;BME280;11154;48.558;9.234;2023-09-07T10:03:33;97810.34;;;23.23;94.43
21980;BME280;11154;48.558;9.234;2023-09-07T10:05:35;97818.97;;;23.31;94.48
21980;BME280;11154;48.558;9.234;2023-09-07T10:07:43;97815.56;;;23.36;93.31
21980;BME280;11154;48.558;9.234;2023-09-07T10:09:45;97815.94;;;23.39;92.92
21980;BME280;11154;48.558;9.234;2023-09-07T10:11:52;97814.97;;;23.45;93.49
21980;BME280;11154;48.558;9.234;2023-09-07T10:13:57;97813.34;;;23.56;93.02
21980;BME280;11154;48.558;9.234;2023-09-07T10:16:02;97810.97;;;23.59;92.14
21980;BME280;11154;48.558;9.234;2023-09-07T10:18:12;97812.66;;;23.60;91.89
21980;BME280;11154;48.558;9.234;2023-09-07T10:20:16;97806.38;;;23.60;91.21
21980;BME280;11154;48.558;9.234;2023-09-07T10:22:20;97813.00;;;23.64;91.51
21980;BME280;11154;48.558;9.234;2023-09-07T10:24:24;97800.47;;;23.63;91.71
21980;BME280;11154;48.558;9.234;2023-09-07T10:26:26;97799.19;;;23.65;91.25
21980;BME280;11154;48.558;9.234;2023-09-07T10:28:28;97799.53;;;23.69;91.40
21980;BME280;11154;48.558;9.234;2023-09-07T10:30:30;97791.41;;;23.80;95.10
21980;BME280;11154;48.558;9.234;2023-09-07T10:32:37;97785.72;;;23.93;93.73
21980;BME280;11154;48.558;9.234;2023-09-07T10:34:41;97787.25;;;24.01;92.07
21980;BME280;11154;48.558;9.234;2023-09-07T10:36:45;97785.44;;;24.06;91.96
21980;BME280;11154;48.558;9.234;2023-09-07T10:38:47;97789.47;;;24.15;94.54
21980;BME280;11154;48.558;9.234;2023-09-07T10:40:47;97789.47;;;24.15;90.59